sensor_id;sensor_type;location;lat;lon;timestamp;temperature;humidity
7902;DHT22;3996;49.674;10.716;2023-03-12T00:00:43;-0.20;43.00
7902;DHT22;3996;49.674;10.716;2023-03-12T00:03:09;-0.20;43.10
7902;DHT22;3996;49.674;10.716;2023-03-12T00:05:39;-0.30;42.80
7902;DHT22;3996;49.674;10.716;2023-03-12T00:08:05;-0.30;43.40
7902;DHT22;3996;49.674;10.716;2023-03-12T00:10:31;-0.30;43.40
7902;DHT22;3996;49.674;10.716;2023-03-12T00:12:57;-0.20;43.30
7902;DHT22;3996;49.674;10.716;2023-03-12T00:15:23;-0.20;43.20
7902;DHT22;3996;49.674;10.716;2023-03-12T00:17:49;-0.20;43.20
7902;DHT22;3996;49.674;10.716;2023-03-12T00:20:15;-0.20;43.30
7902;DHT22;3996;49.674;10.716;2023-03-12T00:22:41;-0.40;44.20
7902;DHT22;3996;49.674;10.716;2023-03-12T00:25:10;-0.30;44.30
7902;DHT22;3996;49.674;10.716;2023-03-12T00:27:36;-0.30;43.40
7902;DHT22;3996;49.674;10.716;2023-03-12T00:30:03;-0.40;43.40
7902;DHT22;3996;49.674;10.716;2023-03-12T00:32:31;-0.30;43.90
7902;DHT22;3996;49.674;10.716;2023-03-12T00:34:57;-0.30;42.80
7902;DHT22;3996;49.674;10.716;2023-03-12T00:37:23;-0.30;42.60
7902;DHT22;3996;49.674;10.716;2023-03-12T00:39:48;-0.50;43.30
7902;DHT22;3996;49.674;10.716;2023-03-12T00:42:14;-0.60;43.80
7902;DHT22;3996;49.674;10.716;2023-03-12T00:44:39;-0.50;43.60
7902;DHT22;3996;49.674;10.716;2023-03-12T00:47:05;-0.50;43.30
7902;DHT22;3996;49.674;10.716;2023-03-12T00:49:31;-0.60;43.60
7902;DHT22;3996;49.674;10.716;2023-03-12T00:51:56;-0.70;45.60
7902;DHT22;3996;49.674;10.716;2023-03-12T00:54:22;-0.70;46.10
7902;DHT22;3996;49.674;10.716;2023-03-12T00:56:48;-0.80;46.40
7902;DHT22;3996;49.674;10.716;2023-03-12T00:59:14;-0.80;47.20
7902;DHT22;3996;49.674;10.716;2023-03-12T01:01:40;-0.80;46.00
7902;DHT22;3996;49.674;10.716;2023-03-12T01:04:06;-0.70;46.30
7902;DHT22;3996;49.674;10.716;2023-03-12T01:06:32;-0.70;45.80
7902;DHT22;3996;49.674;10.716;2023-03-12T01:09:00;-0.80;46.40
7902;DHT22;3996;49.674;10.716;2023-03-12T01:11:27;-0.70;45.60
7902;DHT22;3996;49.674;10.716;2023-03-12T01:13:53;-0.70;44.50
7902;DHT22;3996;49.674;10.716;2023-03-12T01:16:18;-0.70;44.60
7902;DHT22;3996;49.674;10.716;2023-03-12T01:18:44;-0.80;45.30
7902;DHT22;3996;49.674;10.716;2023-03-12T01:21:10;-0.90;45.50
7902;DHT22;3996;49.674;10.716;2023-03-12T01:23:36;-0.90;46.30
7902;DHT22;3996;49.674;10.716;2023-03-12T01:26:02;-0.90;46.20
7902;DHT22;3996;49.674;10.716;2023-03-12T01:28:28;-0.80;45.50
7902;DHT22;3996;49.674;10.716;2023-03-12T01:30:53;-0.80;45.40
7902;DHT22;3996;49.674;10.716;2023-03-12T01:33:19;-0.90;44.90
7902;DHT22;3996;49.674;10.716;2023-03-12T01:35:47;-0.90;44.40
7902;DHT22;3996;49.674;10.716;2023-03-12T01:38:14;-0.90;44.40
7902;DHT22;3996;49.674;10.716;2023-03-12T01:40:41;-0.90;43.80
7902;DHT22;3996;49.674;10.716;2023-03-12T01:43:26;-0.90;45.60
7902;DHT22;3996;49.674;10.716;2023-03-12T01:48:31;-1.00;46.30
7902;DHT22;3996;49.674;10.716;2023-03-12T01:50:58;-1.20;47.10
7902;DHT22;3996;49.674;10.716;2023-03-12T01:53:25;-1.10;46.50
7902;DHT22;3996;49.674;10.716;2023-03-12T01:55:51;-1.10;47.60
7902;DHT22;3996;49.674;10.716;2023-03-12T01:58:17;-1.10;47.00
7902;DHT22;3996;49.674;10.716;2023-03-12T02:00:43;-0.90;45.80
7902;DHT22;3996;49.674;10.716;2023-03-12T02:03:09;-1.00;46.10
7902;DHT22;3996;49.674;10.716;2023-03-12T02:05:47;-1.00;46.50
7902;DHT22;3996;49.674;10.716;2023-03-12T02:08:15;-1.00;46.70
7902;DHT22;3996;49.674;10.716;2023-03-12T02:10:42;-0.90;47.20
7902;DHT22;3996;49.674;10.716;2023-03-12T02:13:07;-0.90;47.20
7902;DHT22;3996;49.674;10.716;2023-03-12T02:15:34;-0.90;46.60
7902;DHT22;3996;49.674;10.716;2023-03-12T02:18:05;-0.90;48.10
7902;DHT22;3996;49.674;10.716;2023-03-12T02:26:20;-0.70;48.10
7902;DHT22;3996;49.674;10.716;2023-03-12T02:28:48;-0.70;47.60
7902;DHT22;3996;49.674;10.716;2023-03-12T02:31:19;-0.70;48.50
7902;DHT22;3996;49.674;10.716;2023-03-12T02:33:46;-0.70;48.30
7902;DHT22;3996;49.674;10.716;2023-03-12T02:36:12;-0.70;48.60
7902;DHT22;3996;49.674;10.716;2023-03-12T02:41:13;-0.60;48.90
7902;DHT22;3996;49.674;10.716;2023-03-12T02:43:40;-0.60;48.70
7902;DHT22;3996;49.674;10.716;2023-03-12T02:46:07;-0.70;49.30
7902;DHT22;3996;49.674;10.716;2023-03-12T02:48:33;-0.70;49.40
7902;DHT22;3996;49.674;10.716;2023-03-12T02:50:58;-0.60;50.10
7902;DHT22;3996;49.674;10.716;2023-03-12T02:53:24;-0.60;49.00
7902;DHT22;3996;49.674;10.716;2023-03-12T02:55:49;-0.60;50.40
7902;DHT22;3996;49.674;10.716;2023-03-12T02:58:15;-0.60;50.20
7902;DHT22;3996;49.674;10.716;2023-03-12T03:00:41;-0.60;50.40
7902;DHT22;3996;49.674;10.716;2023-03-12T03:03:06;-0.60;50.80
7902;DHT22;3996;49.674;10.716;2023-03-12T03:05:32;-0.50;50.50
7902;DHT22;3996;49.674;10.716;2023-03-12T03:07:57;-0.50;50.60
7902;DHT22;3996;49.674;10.716;2023-03-12T03:10:23;-0.50;50.10
7902;DHT22;3996;49.674;10.716;2023-03-12T03:12:48;-0.40;50.30
7902;DHT22;3996;49.674;10.716;2023-03-12T03:15:15;-0.50;50.50
7902;DHT22;3996;49.674;10.716;2023-03-12T03:17:41;-0.40;50.80
7902;DHT22;3996;49.674;10.716;2023-03-12T03:20:07;-0.50;50.70
7902;DHT22;3996;49.674;10.716;2023-03-12T03:22:36;-0.50;50.70
7902;DHT22;3996;49.674;10.716;2023-03-12T03:25:02;-0.50;51.40
7902;DHT22;3996;49.674;10.716;2023-03-12T03:27:28;-0.40;50.50
7902;DHT22;3996;49.674;10.716;2023-03-12T03:29:53;-0.40;49.60
7902;DHT22;3996;49.674;10.716;2023-03-12T03:32:19;-0.40;50.30
7902;DHT22;3996;49.674;10.716;2023-03-12T03:34:44;-0.30;50.10
7902;DHT22;3996;49.674;10.716;2023-03-12T03:37:10;-0.30;49.70
7902;DHT22;3996;49.674;10.716;2023-03-12T03:39:36;-0.30;50.50
7902;DHT22;3996;49.674;10.716;2023-03-12T03:42:01;-0.30;50.50
7902;DHT22;3996;49.674;10.716;2023-03-12T03:44:27;-0.40;50.60
7902;DHT22;3996;49.674;10.716;2023-03-12T03:46:53;-0.30;50.40
7902;DHT22;3996;49.674;10.716;2023-03-12T03:49:19;-0.40;51.00
7902;DHT22;3996;49.674;10.716;2023-03-12T03:51:45;-0.40;51.30
7902;DHT22;3996;49.674;10.716;2023-03-12T03:54:11;-0.40;51.20
7902;DHT22;3996;49.674;10.716;2023-03-12T03:56:38;-0.40;51.50
7902;DHT22;3996;49.674;10.716;2023-03-12T03:59:04;-0.40;51.00
7902;DHT22;3996;49.674;10.716;2023-03-12T04:01:29;-0.40;50.90
7902;DHT22;3996;49.674;10.716;2023-03-12T04:03:56;-0.50;52.20
7902;DHT22;3996;49.674;10.716;2023-03-12T04:06:21;-0.40;51.70
7902;DHT22;3996;49.674;10.716;2023-03-12T04:08:47;-0.30;52.00
7902;DHT22;3996;49.674;10.716;2023-03-12T04:11:20;-0.30;52.40
7902;DHT22;3996;49.674;10.716;2023-03-12T04:13:46;-0.30;52.50
7902;DHT22;3996;49.674;10.716;2023-03-12T04:16:12;-0.30;51.70
7902;DHT22;3996;49.674;10.716;2023-03-12T04:18:38;-0.30;52.60
7902;DHT22;3996;49.674;10.716;2023-03-12T04:21:06;-0.30;51.70
7902;DHT22;3996;49.674;10.716;2023-03-12T04:23:32;-0.30;51.10
7902;DHT22;3996;49.674;10.716;2023-03-12T04:25:58;-0.30;51.40
7902;DHT22;3996;49.674;10.716;2023-03-12T04:28:23;-0.30;51.30
7902;DHT22;3996;49.674;10.716;2023-03-12T04:30:57;-0.20;51.00
7902;DHT22;3996;49.674;10.716;2023-03-12T04:33:32;-0.20;51.20
7902;DHT22;3996;49.674;10.716;2023-03-12T04:35:58;-0.20;50.80
7902;DHT22;3996;49.674;10.716;2023-03-12T04:38:24;-0.20;51.50
7902;DHT22;3996;49.674;10.716;2023-03-12T04:41:01;-0.50;50.90
7902;DHT22;3996;49.674;10.716;2023-03-12T04:43:28;-0.60;53.50
7902;DHT22;3996;49.674;10.716;2023-03-12T04:45:55;-0.60;53.80
7902;DHT22;3996;49.674;10.716;2023-03-12T04:48:21;-0.60;55.30
7902;DHT22;3996;49.674;10.716;2023-03-12T04:50:47;-0.50;54.70
7902;DHT22;3996;49.674;10.716;2023-03-12T04:53:12;-0.50;54.20
7902;DHT22;3996;49.674;10.716;2023-03-12T04:55:38;-0.50;54.00
7902;DHT22;3996;49.674;10.716;2023-03-12T04:58:03;-0.40;54.20
7902;DHT22;3996;49.674;10.716;2023-03-12T05:00:29;-0.40;53.30
7902;DHT22;3996;49.674;10.716;2023-03-12T05:02:55;-0.40;53.40
7902;DHT22;3996;49.674;10.716;2023-03-12T05:05:20;-0.30;53.90
7902;DHT22;3996;49.674;10.716;2023-03-12T05:07:46;-0.30;53.00
7902;DHT22;3996;49.674;10.716;2023-03-12T05:10:11;-0.30;52.40
7902;DHT22;3996;49.674;10.716;2023-03-12T05:12:37;-0.40;52.50
7902;DHT22;3996;49.674;10.716;2023-03-12T05:15:03;-0.50;53.20
7902;DHT22;3996;49.674;10.716;2023-03-12T05:17:29;-0.40;53.10
7902;DHT22;3996;49.674;10.716;2023-03-12T05:19:54;-0.40;53.00
7902;DHT22;3996;49.674;10.716;2023-03-12T05:22:20;-0.50;55.00
7902;DHT22;3996;49.674;10.716;2023-03-12T05:24:45;-0.40;54.20
7902;DHT22;3996;49.674;10.716;2023-03-12T05:27:11;-0.40;54.90
7902;DHT22;3996;49.674;10.716;2023-03-12T05:29:36;-0.30;54.50
7902;DHT22;3996;49.674;10.716;2023-03-12T05:32:02;-0.30;54.00
7902;DHT22;3996;49.674;10.716;2023-03-12T05:34:30;-0.30;54.50
7902;DHT22;3996;49.674;10.716;2023-03-12T05:36:56;-0.20;55.10
7902;DHT22;3996;49.674;10.716;2023-03-12T05:39:22;-0.20;55.30
7902;DHT22;3996;49.674;10.716;2023-03-12T05:41:48;-0.30;54.00
7902;DHT22;3996;49.674;10.716;2023-03-12T05:44:14;-0.30;54.90
7902;DHT22;3996;49.674;10.716;2023-03-12T05:46:41;-0.30;55.40
7902;DHT22;3996;49.674;10.716;2023-03-12T05:49:07;-0.20;55.50
7902;DHT22;3996;49.674;10.716;2023-03-12T05:51:33;-0.10;55.10
7902;DHT22;3996;49.674;10.716;2023-03-12T05:53:59;-0.10;54.80
7902;DHT22;3996;49.674;10.716;2023-03-12T05:56:25;-0.10;54.70
7902;DHT22;3996;49.674;10.716;2023-03-12T05:58:51;-0.10;55.20
7902;DHT22;3996;49.674;10.716;2023-03-12T06:01:22;-0.10;55.30
7902;DHT22;3996;49.674;10.716;2023-03-12T06:03:48;0.00;55.40
7902;DHT22;3996;49.674;10.716;2023-03-12T06:06:15;0.00;54.70
7902;DHT22;3996;49.674;10.716;2023-03-12T06:08:41;0.10;54.80
7902;DHT22;3996;49.674;10.716;2023-03-12T06:11:09;0.10;54.20
7902;DHT22;3996;49.674;10.716;2023-03-12T06:13:34;0.20;54.80
7902;DHT22;3996;49.674;10.716;2023-03-12T06:16:01;0.40;54.40
7902;DHT22;3996;49.674;10.716;2023-03-12T06:18:30;0.80;52.70
7902;DHT22;3996;49.674;10.716;2023-03-12T06:23:38;1.40;47.80
7902;DHT22;3996;49.674;10.716;2023-03-12T06:26:04;1.50;47.10
7902;DHT22;3996;49.674;10.716;2023-03-12T06:28:30;1.30;46.90
7902;DHT22;3996;49.674;10.716;2023-03-12T06:30:56;1.30;47.80
7902;DHT22;3996;49.674;10.716;2023-03-12T06:33:22;1.00;47.80
7902;DHT22;3996;49.674;10.716;2023-03-12T06:35:47;1.00;49.30
7902;DHT22;3996;49.674;10.716;2023-03-12T06:38:13;1.10;48.90
7902;DHT22;3996;49.674;10.716;2023-03-12T06:40:38;0.90;48.30
7902;DHT22;3996;49.674;10.716;2023-03-12T06:43:04;0.90;49.00
7902;DHT22;3996;49.674;10.716;2023-03-12T06:45:36;1.20;48.40
7902;DHT22;3996;49.674;10.716;2023-03-12T06:48:02;2.20;42.40
7902;DHT22;3996;49.674;10.716;2023-03-12T06:50:28;1.90;42.30
7902;DHT22;3996;49.674;10.716;2023-03-12T06:52:53;1.40;42.70
7902;DHT22;3996;49.674;10.716;2023-03-12T06:55:19;1.40;45.30
7902;DHT22;3996;49.674;10.716;2023-03-12T06:57:44;2.10;44.50
7902;DHT22;3996;49.674;10.716;2023-03-12T07:00:10;2.60;39.20
7902;DHT22;3996;49.674;10.716;2023-03-12T07:02:36;1.80;39.80
7902;DHT22;3996;49.674;10.716;2023-03-12T07:05:02;1.40;42.70
7902;DHT22;3996;49.674;10.716;2023-03-12T07:07:27;1.50;44.50
7902;DHT22;3996;49.674;10.716;2023-03-12T07:09:53;1.50;44.50
7902;DHT22;3996;49.674;10.716;2023-03-12T07:12:18;1.50;45.50
7902;DHT22;3996;49.674;10.716;2023-03-12T07:14:44;1.30;43.20
7902;DHT22;3996;49.674;10.716;2023-03-12T07:17:09;1.30;44.70
7902;DHT22;3996;49.674;10.716;2023-03-12T07:19:35;1.20;44.40
7902;DHT22;3996;49.674;10.716;2023-03-12T07:22:00;1.40;43.60
7902;DHT22;3996;49.674;10.716;2023-03-12T07:24:26;1.50;42.80
7902;DHT22;3996;49.674;10.716;2023-03-12T07:26:52;1.60;44.00
7902;DHT22;3996;49.674;10.716;2023-03-12T07:29:17;1.60;44.40
7902;DHT22;3996;49.674;10.716;2023-03-12T07:31:43;1.70;43.80
7902;DHT22;3996;49.674;10.716;2023-03-12T07:34:08;1.80;43.50
7902;DHT22;3996;49.674;10.716;2023-03-12T07:36:34;1.80;44.30
7902;DHT22;3996;49.674;10.716;2023-03-12T07:38:59;1.80;43.50
7902;DHT22;3996;49.674;10.716;2023-03-12T07:41:25;1.90;44.60
7902;DHT22;3996;49.674;10.716;2023-03-12T07:43:51;2.00;44.30
7902;DHT22;3996;49.674;10.716;2023-03-12T07:46:16;2.00;44.40
7902;DHT22;3996;49.674;10.716;2023-03-12T07:48:42;2.00;45.10
7902;DHT22;3996;49.674;10.716;2023-03-12T07:51:07;2.10;45.50
7902;DHT22;3996;49.674;10.716;2023-03-12T07:53:33;2.10;43.60
7902;DHT22;3996;49.674;10.716;2023-03-12T07:55:59;2.10;44.60
7902;DHT22;3996;49.674;10.716;2023-03-12T07:58:24;2.10;44.30
7902;DHT22;3996;49.674;10.716;2023-03-12T08:00:50;2.10;43.70
7902;DHT22;3996;49.674;10.716;2023-03-12T08:03:15;2.20;45.90
7902;DHT22;3996;49.674;10.716;2023-03-12T08:05:41;2.20;45.70
7902;DHT22;3996;49.674;10.716;2023-03-12T08:08:07;2.30;45.50
7902;DHT22;3996;49.674;10.716;2023-03-12T08:10:32;2.50;44.20
7902;DHT22;3996;49.674;10.716;2023-03-12T08:12:58;2.60;43.00
7902;DHT22;3996;49.674;10.716;2023-03-12T08:15:23;2.70;43.00
7902;DHT22;3996;49.674;10.716;2023-03-12T08:17:49;2.80;42.10
7902;DHT22;3996;49.674;10.716;2023-03-12T08:20:15;2.90;43.30
7902;DHT22;3996;49.674;10.716;2023-03-12T08:22:42;2.80;42.00
7902;DHT22;3996;49.674;10.716;2023-03-12T08:25:08;2.80;42.70
7902;DHT22;3996;49.674;10.716;2023-03-12T08:27:33;2.70;42.40
7902;DHT22;3996;49.674;10.716;2023-03-12T08:29:59;3.20;42.60
7902;DHT22;3996;49.674;10.716;2023-03-12T08:32:25;3.70;40.90
7902;DHT22;3996;49.674;10.716;2023-03-12T08:34:50;3.70;38.80
7902;DHT22;3996;49.674;10.716;2023-03-12T08:37:16;3.90;38.90
7902;DHT22;3996;49.674;10.716;2023-03-12T08:39:42;4.10;38.50
7902;DHT22;3996;49.674;10.716;2023-03-12T08:42:07;4.00;38.40
7902;DHT22;3996;49.674;10.716;2023-03-12T08:44:33;3.80;35.80
7902;DHT22;3996;49.674;10.716;2023-03-12T08:46:59;3.80;37.20
7902;DHT22;3996;49.674;10.716;2023-03-12T08:49:25;3.80;38.50
7902;DHT22;3996;49.674;10.716;2023-03-12T08:51:50;3.70;37.10
7902;DHT22;3996;49.674;10.716;2023-03-12T08:54:17;3.90;35.70
7902;DHT22;3996;49.674;10.716;2023-03-12T08:56:43;4.20;31.90
7902;DHT22;3996;49.674;10.716;2023-03-12T08:59:09;4.70;33.10
7902;DHT22;3996;49.674;10.716;2023-03-12T09:01:35;5.10;29.70
7902;DHT22;3996;49.674;10.716;2023-03-12T09:04:02;5.10;29.30
7902;DHT22;3996;49.674;10.716;2023-03-12T09:06:28;5.00;28.70
7902;DHT22;3996;49.674;10.716;2023-03-12T09:08:54;4.90;29.30
7902;DHT22;3996;49.674;10.716;2023-03-12T09:11:19;4.80;30.50
7902;DHT22;3996;49.674;10.716;2023-03-12T09:13:45;4.80;30.10
7902;DHT22;3996;49.674;10.716;2023-03-12T09:16:11;4.50;30.40
7902;DHT22;3996;49.674;10.716;2023-03-12T09:18:36;4.20;29.90
7902;DHT22;3996;49.674;10.716;2023-03-12T09:21:02;4.00;31.30
7902;DHT22;3996;49.674;10.716;2023-03-12T09:23:28;3.90;31.90
7902;DHT22;3996;49.674;10.716;2023-03-12T09:25:54;4.20;32.00
7902;DHT22;3996;49.674;10.716;2023-03-12T09:28:20;4.50;31.60
7902;DHT22;3996;49.674;10.716;2023-03-12T09:30:46;4.80;30.90
7902;DHT22;3996;49.674;10.716;2023-03-12T09:33:12;4.90;30.50
7902;DHT22;3996;49.674;10.716;2023-03-12T09:35:40;4.90;28.80
7902;DHT22;3996;49.674;10.716;2023-03-12T09:38:06;4.90;30.80
7902;DHT22;3996;49.674;10.716;2023-03-12T09:40:33;5.30;30.70
7902;DHT22;3996;49.674;10.716;2023-03-12T09:43:12;5.40;29.60
7902;DHT22;3996;49.674;10.716;2023-03-12T09:45:44;5.20;28.10
7902;DHT22;3996;49.674;10.716;2023-03-12T09:48:23;5.20;28.80
7902;DHT22;3996;49.674;10.716;2023-03-12T09:50:51;5.30;28.90
7902;DHT22;3996;49.674;10.716;2023-03-12T09:55:57;5.80;28.00
7902;DHT22;3996;49.674;10.716;2023-03-12T09:58:28;5.80;27.50
7902;DHT22;3996;49.674;10.716;2023-03-12T10:01:01;5.90;27.70
7902;DHT22;3996;49.674;10.716;2023-03-12T10:06:17;5.90;27.00
7902;DHT22;3996;49.674;10.716;2023-03-12T10:16:36;6.20;27.60
7902;DHT22;3996;49.674;10.716;2023-03-12T10:27:27;6.50;28.90
7902;DHT22;3996;49.674;10.716;2023-03-12T10:29:53;6.50;29.20
7902;DHT22;3996;49.674;10.716;2023-03-12T10:32:38;6.40;29.90
7902;DHT22;3996;49.674;10.716;2023-03-12T10:35:21;6.40;31.00
7902;DHT22;3996;49.674;10.716;2023-03-12T10:37:48;6.10;32.30
7902;DHT22;3996;49.674;10.716;2023-03-12T10:40:15;6.00;33.90
7902;DHT22;3996;49.674;10.716;2023-03-12T10:42:41;6.00;35.30
7902;DHT22;3996;49.674;10.716;2023-03-12T10:47:36;5.70;37.70
7902;DHT22;3996;49.674;10.716;2023-03-12T10:55:40;5.90;37.30
7902;DHT22;3996;49.674;10.716;2023-03-12T10:58:06;5.90;37.70
7902;DHT22;3996;49.674;10.716;2023-03-12T11:00:31;5.80;38.00
7902;DHT22;3996;49.674;10.716;2023-03-12T11:03:04;5.80;39.50
7902;DHT22;3996;49.674;10.716;2023-03-12T11:05:30;5.90;40.20
7902;DHT22;3996;49.674;10.716;2023-03-12T11:07:57;5.90;42.30
7902;DHT22;3996;49.674;10.716;2023-03-12T11:10:25;5.90;42.80
7902;DHT22;3996;49.674;10.716;2023-03-12T11:13:03;5.80;44.20
7902;DHT22;3996;49.674;10.716;2023-03-12T11:15:37;5.70;46.50
7902;DHT22;3996;49.674;10.716;2023-03-12T11:18:22;5.80;47.40
7902;DHT22;3996;49.674;10.716;2023-03-12T11:21:11;5.90;49.30
7902;DHT22;3996;49.674;10.716;2023-03-12T11:23:39;5.70;49.80
7902;DHT22;3996;49.674;10.716;2023-03-12T11:26:15;5.60;51.40
7902;DHT22;3996;49.674;10.716;2023-03-12T11:28:46;5.60;52.50
7902;DHT22;3996;49.674;10.716;2023-03-12T11:31:18;5.50;51.80
7902;DHT22;3996;49.674;10.716;2023-03-12T11:33:44;5.50;52.10
7902;DHT22;3996;49.674;10.716;2023-03-12T11:38:37;5.80;52.20
7902;DHT22;3996;49.674;10.716;2023-03-12T11:43:56;5.90;50.90
7902;DHT22;3996;49.674;10.716;2023-03-12T11:46:39;6.00;48.90
7902;DHT22;3996;49.674;10.716;2023-03-12T11:59:51;6.00;49.50
7902;DHT22;3996;49.674;10.716;2023-03-12T12:25:11;5.90;53.40
7902;DHT22;3996;49.674;10.716;2023-03-12T12:28:28;6.00;53.80
7902;DHT22;3996;49.674;10.716;2023-03-12T12:30:35;6.00;54.30
7902;DHT22;3996;49.674;10.716;2023-03-12T12:33:10;6.10;56.00
7902;DHT22;3996;49.674;10.716;2023-03-12T12:35:39;6.00;57.90
7902;DHT22;3996;49.674;10.716;2023-03-12T12:38:13;6.00;59.70
7902;DHT22;3996;49.674;10.716;2023-03-12T12:40:41;6.10;61.90
7902;DHT22;3996;49.674;10.716;2023-03-12T12:46:11;6.20;61.40
7902;DHT22;3996;49.674;10.716;2023-03-12T12:48:39;6.30;61.60
7902;DHT22;3996;49.674;10.716;2023-03-12T12:51:06;6.30;62.60
7902;DHT22;3996;49.674;10.716;2023-03-12T13:01:30;6.40;70.00
7902;DHT22;3996;49.674;10.716;2023-03-12T13:04:00;6.40;70.20
7902;DHT22;3996;49.674;10.716;2023-03-12T13:06:53;6.40;69.50
7902;DHT22;3996;49.674;10.716;2023-03-12T13:09:23;6.50;71.50
7902;DHT22;3996;49.674;10.716;2023-03-12T13:12:07;6.50;71.30
7902;DHT22;3996;49.674;10.716;2023-03-12T13:14:41;6.60;70.70
7902;DHT22;3996;49.674;10.716;2023-03-12T13:19:45;7.00;71.90
7902;DHT22;3996;49.674;10.716;2023-03-12T13:22:23;7.10;70.50
7902;DHT22;3996;49.674;10.716;2023-03-12T13:27:30;6.90;71.80
7902;DHT22;3996;49.674;10.716;2023-03-12T13:29:56;6.80;69.60
7902;DHT22;3996;49.674;10.716;2023-03-12T13:41:06;7.00;71.20
7902;DHT22;3996;49.674;10.716;2023-03-12T13:43:39;7.00;70.00
7902;DHT22;3996;49.674;10.716;2023-03-12T13:48:30;7.00;72.40
7902;DHT22;3996;49.674;10.716;2023-03-12T13:50:58;7.00;72.80
7902;DHT22;3996;49.674;10.716;2023-03-12T13:53:25;7.00;72.90
7902;DHT22;3996;49.674;10.716;2023-03-12T13:56:02;7.10;73.20
7902;DHT22;3996;49.674;10.716;2023-03-12T13:58:29;7.10;74.90
7902;DHT22;3996;49.674;10.716;2023-03-12T14:00:56;7.10;76.00
7902;DHT22;3996;49.674;10.716;2023-03-12T14:03:34;7.10;76.70
7902;DHT22;3996;49.674;10.716;2023-03-12T14:13:37;7.20;81.80
7902;DHT22;3996;49.674;10.716;2023-03-12T14:18:35;7.20;83.20
7902;DHT22;3996;49.674;10.716;2023-03-12T14:21:05;7.30;83.90
7902;DHT22;3996;49.674;10.716;2023-03-12T14:23:35;7.40;84.30
7902;DHT22;3996;49.674;10.716;2023-03-12T14:26:02;7.40;85.50
7902;DHT22;3996;49.674;10.716;2023-03-12T14:28:29;7.50;86.00
7902;DHT22;3996;49.674;10.716;2023-03-12T14:31:15;7.60;85.20
7902;DHT22;3996;49.674;10.716;2023-03-12T14:36:19;7.80;86.00
7902;DHT22;3996;49.674;10.716;2023-03-12T14:38:47;7.80;83.90
7902;DHT22;3996;49.674;10.716;2023-03-12T14:41:29;7.90;82.80
7902;DHT22;3996;49.674;10.716;2023-03-12T14:44:04;8.00;81.00
7902;DHT22;3996;49.674;10.716;2023-03-12T14:46:30;8.00;82.10
7902;DHT22;3996;49.674;10.716;2023-03-12T14:48:55;8.00;80.70
7902;DHT22;3996;49.674;10.716;2023-03-12T14:51:25;8.00;80.50
7902;DHT22;3996;49.674;10.716;2023-03-12T14:53:51;8.00;81.60
7902;DHT22;3996;49.674;10.716;2023-03-12T14:58:55;8.00;80.00
7902;DHT22;3996;49.674;10.716;2023-03-12T15:01:22;8.00;81.20
7902;DHT22;3996;49.674;10.716;2023-03-12T15:03:54;8.10;81.80
7902;DHT22;3996;49.674;10.716;2023-03-12T15:06:34;8.20;80.10
7902;DHT22;3996;49.674;10.716;2023-03-12T15:09:02;8.20;79.70
7902;DHT22;3996;49.674;10.716;2023-03-12T15:11:29;8.30;78.90
7902;DHT22;3996;49.674;10.716;2023-03-12T15:13:56;8.30;76.20
7902;DHT22;3996;49.674;10.716;2023-03-12T15:16:26;8.30;74.60
7902;DHT22;3996;49.674;10.716;2023-03-12T15:18:52;8.40;75.80
7902;DHT22;3996;49.674;10.716;2023-03-12T15:21:18;8.40;75.10
7902;DHT22;3996;49.674;10.716;2023-03-12T15:23:44;8.40;75.10
7902;DHT22;3996;49.674;10.716;2023-03-12T15:29:44;8.40;74.00
7902;DHT22;3996;49.674;10.716;2023-03-12T15:31:40;8.40;72.30
7902;DHT22;3996;49.674;10.716;2023-03-12T15:34:06;8.50;72.50
7902;DHT22;3996;49.674;10.716;2023-03-12T15:36:32;8.50;72.60
7902;DHT22;3996;49.674;10.716;2023-03-12T15:39:00;8.50;71.30
7902;DHT22;3996;49.674;10.716;2023-03-12T15:41:27;8.60;71.70
7902;DHT22;3996;49.674;10.716;2023-03-12T15:43:54;8.50;72.20
7902;DHT22;3996;49.674;10.716;2023-03-12T15:46:20;8.50;71.30
7902;DHT22;3996;49.674;10.716;2023-03-12T15:48:47;8.50;71.50
7902;DHT22;3996;49.674;10.716;2023-03-12T15:51:36;8.50;71.10
7902;DHT22;3996;49.674;10.716;2023-03-12T15:54:04;8.50;71.60
7902;DHT22;3996;49.674;10.716;2023-03-12T15:56:31;8.50;71.60
7902;DHT22;3996;49.674;10.716;2023-03-12T15:58:58;8.50;70.30
7902;DHT22;3996;49.674;10.716;2023-03-12T16:01:24;8.50;71.20
7902;DHT22;3996;49.674;10.716;2023-03-12T16:03:52;8.50;70.60
7902;DHT22;3996;49.674;10.716;2023-03-12T16:06:19;8.50;70.70
7902;DHT22;3996;49.674;10.716;2023-03-12T16:08:45;8.40;70.60
7902;DHT22;3996;49.674;10.716;2023-03-12T16:11:16;8.40;71.00
7902;DHT22;3996;49.674;10.716;2023-03-12T16:13:42;8.40;71.00
7902;DHT22;3996;49.674;10.716;2023-03-12T16:16:12;8.40;72.10
7902;DHT22;3996;49.674;10.716;2023-03-12T16:18:37;8.40;71.50
7902;DHT22;3996;49.674;10.716;2023-03-12T16:21:03;8.40;71.10
7902;DHT22;3996;49.674;10.716;2023-03-12T16:23:29;8.40;71.80
7902;DHT22;3996;49.674;10.716;2023-03-12T16:25:54;8.40;72.60
7902;DHT22;3996;49.674;10.716;2023-03-12T16:28:20;8.40;71.30
7902;DHT22;3996;49.674;10.716;2023-03-12T16:30:47;8.40;70.70
7902;DHT22;3996;49.674;10.716;2023-03-12T16:33:17;8.40;71.30
7902;DHT22;3996;49.674;10.716;2023-03-12T16:35:43;8.40;70.90
7902;DHT22;3996;49.674;10.716;2023-03-12T16:38:08;8.40;70.90
7902;DHT22;3996;49.674;10.716;2023-03-12T16:40:34;8.40;71.10
7902;DHT22;3996;49.674;10.716;2023-03-12T16:43:01;8.40;71.00
7902;DHT22;3996;49.674;10.716;2023-03-12T16:45:28;8.40;71.80
7902;DHT22;3996;49.674;10.716;2023-03-12T16:47:57;8.40;71.50
7902;DHT22;3996;49.674;10.716;2023-03-12T16:50:22;8.40;71.80
7902;DHT22;3996;49.674;10.716;2023-03-12T16:52:48;8.40;71.70
7902;DHT22;3996;49.674;10.716;2023-03-12T16:55:17;8.40;72.30
7902;DHT22;3996;49.674;10.716;2023-03-12T16:57:44;8.30;72.40
7902;DHT22;3996;49.674;10.716;2023-03-12T17:00:15;8.30;72.50
7902;DHT22;3996;49.674;10.716;2023-03-12T17:02:43;8.30;73.10
7902;DHT22;3996;49.674;10.716;2023-03-12T17:05:08;8.30;73.10
7902;DHT22;3996;49.674;10.716;2023-03-12T17:07:34;8.30;73.00
7902;DHT22;3996;49.674;10.716;2023-03-12T17:10:00;8.20;72.90
7902;DHT22;3996;49.674;10.716;2023-03-12T17:14:51;8.20;73.60
7902;DHT22;3996;49.674;10.716;2023-03-12T17:17:16;8.20;72.90
7902;DHT22;3996;49.674;10.716;2023-03-12T17:19:42;8.20;72.60
7902;DHT22;3996;49.674;10.716;2023-03-12T17:22:08;8.30;72.90
7902;DHT22;3996;49.674;10.716;2023-03-12T17:24:33;8.30;72.80
7902;DHT22;3996;49.674;10.716;2023-03-12T17:26:59;8.30;72.80
7902;DHT22;3996;49.674;10.716;2023-03-12T17:29:24;8.30;72.60
7902;DHT22;3996;49.674;10.716;2023-03-12T17:31:50;8.30;73.00
7902;DHT22;3996;49.674;10.716;2023-03-12T17:34:16;8.30;73.30
7902;DHT22;3996;49.674;10.716;2023-03-12T17:36:42;8.20;73.90
7902;DHT22;3996;49.674;10.716;2023-03-12T17:39:07;8.20;74.20
7902;DHT22;3996;49.674;10.716;2023-03-12T17:41:33;8.10;75.00
7902;DHT22;3996;49.674;10.716;2023-03-12T17:43:59;8.10;75.00
7902;DHT22;3996;49.674;10.716;2023-03-12T17:46:27;8.00;75.60
7902;DHT22;3996;49.674;10.716;2023-03-12T17:48:52;8.00;75.30
7902;DHT22;3996;49.674;10.716;2023-03-12T17:51:18;8.00;76.00
7902;DHT22;3996;49.674;10.716;2023-03-12T17:53:45;7.90;76.50
7902;DHT22;3996;49.674;10.716;2023-03-12T17:56:11;7.90;77.00
7902;DHT22;3996;49.674;10.716;2023-03-12T17:58:37;8.00;76.90
7902;DHT22;3996;49.674;10.716;2023-03-12T18:01:02;7.90;76.50
7902;DHT22;3996;49.674;10.716;2023-03-12T18:03:28;7.90;76.50
7902;DHT22;3996;49.674;10.716;2023-03-12T18:05:54;7.90;78.50